Fruitvale, Washington
Current Conditions -  °F | °C
As of 10:02 PM on Wednesday 28 Jan 2015 (Local Time) from KYKM Reporting Station
Haze Haze  
Wind Chill: 30°   Ceiling: 200
Heat Index: 35°   Visibility: 3mi
Dew Point: 33°   Wind: 6mph
Humidity: 92%   Direction: 170°S
Pressure: 30.46"   Gusts: NA
Location:  46.5979°N, 120.534°W
Report Text: KYKM 290602Z AUTO 17005KT 3SM BR OVC002 02/01 A3046 RMK AO2 T00170006
Loading
Personal Weather Stations






























Interactive Weather Map New forecast layout! Learn more

10-Day Weather Forecast

Advertisements
Track Severe Weather on mobile